Terminal Aerodrome Forecast
Issued by NWS Northern Indiana

Home | Current Version | Previous Version | Graphics & Text | Print | Product List | Glossary On
Versions: 1 2 3 4 5 6 7 8 9 10 11 12 13 14 15 16 17
000
FTUS43 KIWX 282300
TAFFWA
TAF
KFWA 282338Z 0100/0124 10008KT P6SM BKN120
     FM010400 12006KT 2SM -SN SCT025 OVC050
     FM010700 VRB02KT 1SM -SN BR OVC010
     FM011600 26005KT 2SM -SN OVC025=

USA.gov is the U.S. government's official web portal to all federal, state and local government web resources and services.